sensor_id;sensor_type;location;lat;lon;timestamp;pressure;altitude;pressure_sealevel;temperature;humidity
64675;BME280;51090;51.512;11.332;2023-05-12T00:00:04;99388.78;;;14.93;100.00
64675;BME280;51090;51.512;11.332;2023-05-12T00:02:32;99382.22;;;14.89;100.00
64675;BME280;51090;51.512;11.332;2023-05-12T00:04:57;99389.19;;;14.90;100.00
64675;BME280;51090;51.512;11.332;2023-05-12T00:07:23;99386.56;;;14.83;100.00
64675;BME280;51090;51.512;11.332;2023-05-12T00:09:49;99382.47;;;14.80;100.00
64675;BME280;51090;51.512;11.332;2023-05-12T00:12:14;99381.88;;;14.78;100.00
64675;BME280;51090;51.512;11.332;2023-05-12T00:14:40;99379.66;;;14.69;100.00
64675;BME280;51090;51.512;11.332;2023-05-12T00:17:06;99384.19;;;14.68;100.00
64675;BME280;51090;51.512;11.332;2023-05-12T00:19:32;99379.69;;;14.62;100.00
64675;BME280;51090;51.512;11.332;2023-05-12T00:21:59;99376.41;;;14.60;100.00
64675;BME280;51090;51.512;11.332;2023-05-12T00:24:25;99379.09;;;14.60;100.00
64675;BME280;51090;51.512;11.332;2023-05-12T00:26:52;99371.28;;;14.58;100.00
64675;BME280;51090;51.512;11.332;2023-05-12T00:29:17;99378.03;;;14.61;100.00
64675;BME280;51090;51.512;11.332;2023-05-12T00:31:43;99388.09;;;14.66;100.00
64675;BME280;51090;51.512;11.332;2023-05-12T00:34:09;99390.75;;;14.66;100.00
64675;BME280;51090;51.512;11.332;2023-05-12T00:36:34;99385.22;;;14.67;100.00
64675;BME280;51090;51.512;11.332;2023-05-12T00:39:00;99380.88;;;14.66;100.00
64675;BME280;51090;51.512;11.332;2023-05-12T00:41:26;99379.47;;;14.64;100.00
64675;BME280;51090;51.512;11.332;2023-05-12T00:43:52;99376.78;;;14.64;100.00
64675;BME280;51090;51.512;11.332;2023-05-12T00:46:18;99374.56;;;14.54;100.00
64675;BME280;51090;51.512;11.332;2023-05-12T00:48:45;99375.41;;;14.48;100.00
64675;BME280;51090;51.512;11.332;2023-05-12T00:51:12;99377.69;;;14.44;100.00
64675;BME280;51090;51.512;11.332;2023-05-12T00:53:40;99382.59;;;14.41;100.00
64675;BME280;51090;51.512;11.332;2023-05-12T00:56:07;99392.09;;;14.36;100.00
64675;BME280;51090;51.512;11.332;2023-05-12T00:58:33;99386.97;;;14.28;100.00
64675;BME280;51090;51.512;11.332;2023-05-12T01:00:58;99384.72;;;14.25;100.00
64675;BME280;51090;51.512;11.332;2023-05-12T01:03:24;99366.91;;;14.12;100.00
64675;BME280;51090;51.512;11.332;2023-05-12T01:05:59;99385.31;;;14.27;100.00
64675;BME280;51090;51.512;11.332;2023-05-12T01:08:30;99382.47;;;14.22;100.00
64675;BME280;51090;51.512;11.332;2023-05-12T01:10:57;99371.00;;;14.15;100.00
64675;BME280;51090;51.512;11.332;2023-05-12T01:13:22;99377.78;;;14.11;100.00
64675;BME280;51090;51.512;11.332;2023-05-12T01:15:49;99372.69;;;14.03;100.00
64675;BME280;51090;51.512;11.332;2023-05-12T01:18:18;99388.03;;;14.07;100.00
64675;BME280;51090;51.512;11.332;2023-05-12T01:20:46;99376.38;;;14.02;100.00
64675;BME280;51090;51.512;11.332;2023-05-12T01:23:14;99392.56;;;14.07;100.00
64675;BME280;51090;51.512;11.332;2023-05-12T01:25:41;99375.34;;;14.03;100.00
64675;BME280;51090;51.512;11.332;2023-05-12T01:28:08;99390.50;;;14.09;100.00
64675;BME280;51090;51.512;11.332;2023-05-12T01:30:34;99384.16;;;14.03;100.00
64675;BME280;51090;51.512;11.332;2023-05-12T01:33:02;99399.13;;;14.04;100.00
64675;BME280;51090;51.512;11.332;2023-05-12T01:35:28;99399.75;;;14.00;100.00
64675;BME280;51090;51.512;11.332;2023-05-12T01:37:54;99384.16;;;13.97;100.00
64675;BME280;51090;51.512;11.332;2023-05-12T01:40:20;99382.13;;;13.92;100.00
64675;BME280;51090;51.512;11.332;2023-05-12T01:42:47;99385.00;;;13.84;100.00
64675;BME280;51090;51.512;11.332;2023-05-12T01:45:13;99382.38;;;13.77;100.00
64675;BME280;51090;51.512;11.332;2023-05-12T01:47:39;99394.47;;;13.73;100.00
64675;BME280;51090;51.512;11.332;2023-05-12T01:50:05;99392.41;;;13.68;100.00
64675;BME280;51090;51.512;11.332;2023-05-12T01:52:32;99387.91;;;13.62;100.00
64675;BME280;51090;51.512;11.332;2023-05-12T01:54:58;99377.25;;;13.42;100.00
64675;BME280;51090;51.512;11.332;2023-05-12T01:57:23;99379.91;;;13.36;100.00
64675;BME280;51090;51.512;11.332;2023-05-12T01:59:49;99386.00;;;13.23;100.00
64675;BME280;51090;51.512;11.332;2023-05-12T02:02:14;99390.94;;;13.26;100.00
64675;BME280;51090;51.512;11.332;2023-05-12T02:04:40;99392.16;;;13.23;100.00
64675;BME280;51090;51.512;11.332;2023-05-12T02:07:06;99384.56;;;13.20;100.00
64675;BME280;51090;51.512;11.332;2023-05-12T02:09:32;99389.28;;;13.18;100.00
64675;BME280;51090;51.512;11.332;2023-05-12T02:11:57;99392.56;;;13.14;100.00
64675;BME280;51090;51.512;11.332;2023-05-12T02:14:23;99398.09;;;13.05;100.00
64675;BME280;51090;51.512;11.332;2023-05-12T02:16:49;99376.34;;;12.95;100.00
64675;BME280;51090;51.512;11.332;2023-05-12T02:19:18;99397.88;;;13.07;100.00
64675;BME280;51090;51.512;11.332;2023-05-12T02:21:44;99397.66;;;13.08;100.00
64675;BME280;51090;51.512;11.332;2023-05-12T02:24:11;99399.31;;;13.10;100.00
64675;BME280;51090;51.512;11.332;2023-05-12T02:26:37;99397.03;;;13.06;100.00
64675;BME280;51090;51.512;11.332;2023-05-12T02:29:02;99397.03;;;13.06;100.00
64675;BME280;51090;51.512;11.332;2023-05-12T02:31:28;99393.16;;;13.02;100.00
64675;BME280;51090;51.512;11.332;2023-05-12T02:33:54;99400.75;;;13.05;100.00
64675;BME280;51090;51.512;11.332;2023-05-12T02:36:19;99400.75;;;13.05;100.00
64675;BME280;51090;51.512;11.332;2023-05-12T02:38:45;99406.25;;;13.04;100.00
64675;BME280;51090;51.512;11.332;2023-05-12T02:41:11;99410.53;;;12.98;100.00
64675;BME280;51090;51.512;11.332;2023-05-12T02:43:37;99403.16;;;12.94;100.00
64675;BME280;51090;51.512;11.332;2023-05-12T02:46:03;99410.34;;;12.93;100.00
64675;BME280;51090;51.512;11.332;2023-05-12T02:48:29;99408.69;;;12.92;100.00
64675;BME280;51090;51.512;11.332;2023-05-12T02:50:54;99398.66;;;12.88;100.00
64675;BME280;51090;51.512;11.332;2023-05-12T02:53:20;99408.47;;;12.87;100.00
64675;BME280;51090;51.512;11.332;2023-05-12T02:55:46;99379.56;;;12.71;100.00
64675;BME280;51090;51.512;11.332;2023-05-12T02:58:11;99411.97;;;12.88;100.00
64675;BME280;51090;51.512;11.332;2023-05-12T03:00:37;99418.50;;;12.92;100.00
64675;BME280;51090;51.512;11.332;2023-05-12T03:03:03;99398.44;;;12.89;100.00
64675;BME280;51090;51.512;11.332;2023-05-12T03:05:28;99396.41;;;12.91;100.00
64675;BME280;51090;51.512;11.332;2023-05-12T03:07:55;99404.19;;;12.99;100.00
64675;BME280;51090;51.512;11.332;2023-05-12T03:10:21;99403.81;;;13.02;100.00
64675;BME280;51090;51.512;11.332;2023-05-12T03:12:47;99386.59;;;12.98;100.00
64675;BME280;51090;51.512;11.332;2023-05-12T03:15:12;99399.31;;;13.03;100.00
64675;BME280;51090;51.512;11.332;2023-05-12T03:17:38;99394.19;;;13.08;100.00
64675;BME280;51090;51.512;11.332;2023-05-12T03:20:05;99397.47;;;13.10;100.00
64675;BME280;51090;51.512;11.332;2023-05-12T03:22:31;99391.94;;;13.12;100.00
64675;BME280;51090;51.512;11.332;2023-05-12T03:24:56;99395.84;;;13.16;100.00
64675;BME280;51090;51.512;11.332;2023-05-12T03:27:22;99399.50;;;13.15;100.00
64675;BME280;51090;51.512;11.332;2023-05-12T03:29:48;99390.13;;;13.19;100.00
64675;BME280;51090;51.512;11.332;2023-05-12T03:32:13;99400.34;;;13.22;100.00
64675;BME280;51090;51.512;11.332;2023-05-12T03:34:39;99372.69;;;13.10;100.00
64675;BME280;51090;51.512;11.332;2023-05-12T03:37:05;99372.69;;;13.10;100.00
64675;BME280;51090;51.512;11.332;2023-05-12T03:39:30;99394.00;;;13.23;100.00
64675;BME280;51090;51.512;11.332;2023-05-12T03:41:56;99396.47;;;13.24;100.00
64675;BME280;51090;51.512;11.332;2023-05-12T03:44:22;99399.78;;;13.26;100.00
64675;BME280;51090;51.512;11.332;2023-05-12T03:46:48;99403.06;;;13.35;100.00
64675;BME280;51090;51.512;11.332;2023-05-12T03:49:14;99383.59;;;13.28;100.00
64675;BME280;51090;51.512;11.332;2023-05-12T03:51:39;99373.31;;;13.18;100.00
64675;BME280;51090;51.512;11.332;2023-05-12T03:54:05;99369.00;;;13.11;100.00
64675;BME280;51090;51.512;11.332;2023-05-12T03:56:31;99388.66;;;13.23;100.00
64675;BME280;51090;51.512;11.332;2023-05-12T03:58:56;99376.81;;;13.19;100.00
64675;BME280;51090;51.512;11.332;2023-05-12T04:01:22;99394.44;;;13.33;100.00
64675;BME280;51090;51.512;11.332;2023-05-12T04:03:48;99394.47;;;13.40;100.00
64675;BME280;51090;51.512;11.332;2023-05-12T04:06:13;99392.00;;;13.45;100.00
64675;BME280;51090;51.512;11.332;2023-05-12T04:08:39;99401.00;;;13.50;100.00
64675;BME280;51090;51.512;11.332;2023-05-12T04:11:05;99373.97;;;13.40;100.00
64675;BME280;51090;51.512;11.332;2023-05-12T04:13:31;99391.81;;;13.60;100.00
64675;BME280;51090;51.512;11.332;2023-05-12T04:15:58;99393.25;;;13.62;100.00
64675;BME280;51090;51.512;11.332;2023-05-12T04:18:25;99392.81;;;13.65;100.00
64675;BME280;51090;51.512;11.332;2023-05-12T04:20:55;99388.72;;;13.63;100.00
64675;BME280;51090;51.512;11.332;2023-05-12T04:23:21;99386.47;;;13.60;100.00
64675;BME280;51090;51.512;11.332;2023-05-12T04:25:47;99394.44;;;13.66;100.00
64675;BME280;51090;51.512;11.332;2023-05-12T04:28:12;99388.31;;;13.66;100.00
64675;BME280;51090;51.512;11.332;2023-05-12T04:30:39;99390.38;;;13.77;100.00
64675;BME280;51090;51.512;11.332;2023-05-12T04:33:06;99400.00;;;13.85;100.00
64675;BME280;51090;51.512;11.332;2023-05-12T04:35:33;99401.81;;;13.91;100.00
64675;BME280;51090;51.512;11.332;2023-05-12T04:37:58;99404.69;;;13.96;100.00
64675;BME280;51090;51.512;11.332;2023-05-12T04:40:26;99403.25;;;14.00;100.00
64675;BME280;51090;51.512;11.332;2023-05-12T04:42:52;99395.44;;;13.99;100.00
64675;BME280;51090;51.512;11.332;2023-05-12T04:45:17;99392.78;;;14.05;100.00
64675;BME280;51090;51.512;11.332;2023-05-12T04:47:43;99394.59;;;14.11;100.00
64675;BME280;51090;51.512;11.332;2023-05-12T04:50:09;99389.06;;;14.13;100.00
64675;BME280;51090;51.512;11.332;2023-05-12T04:52:36;99401.38;;;14.21;100.00
64675;BME280;51090;51.512;11.332;2023-05-12T04:55:03;99393.94;;;14.23;100.00
64675;BME280;51090;51.512;11.332;2023-05-12T04:57:28;99390.66;;;14.27;100.00
64675;BME280;51090;51.512;11.332;2023-05-12T04:59:54;99396.81;;;14.34;100.00
64675;BME280;51090;51.512;11.332;2023-05-12T05:02:21;99395.56;;;14.37;100.00
64675;BME280;51090;51.512;11.332;2023-05-12T05:04:47;99399.84;;;14.45;100.00
64675;BME280;51090;51.512;11.332;2023-05-12T05:07:13;99399.00;;;14.57;100.00
64675;BME280;51090;51.512;11.332;2023-05-12T05:09:39;99405.53;;;14.62;100.00
64675;BME280;51090;51.512;11.332;2023-05-12T05:12:06;99407.16;;;14.69;100.00
64675;BME280;51090;51.512;11.332;2023-05-12T05:14:32;99404.66;;;14.74;100.00
64675;BME280;51090;51.512;11.332;2023-05-12T05:16:58;99404.63;;;14.81;100.00
64675;BME280;51090;51.512;11.332;2023-05-12T05:19:25;99413.81;;;14.92;100.00
64675;BME280;51090;51.512;11.332;2023-05-12T05:21:51;99411.75;;;15.00;100.00
64675;BME280;51090;51.512;11.332;2023-05-12T05:24:18;99406.34;;;15.07;100.00
64675;BME280;51090;51.512;11.332;2023-05-12T05:26:43;99408.19;;;15.13;100.00
64675;BME280;51090;51.512;11.332;2023-05-12T05:29:10;99426.78;;;15.27;100.00
64675;BME280;51090;51.512;11.332;2023-05-12T05:31:36;99441.63;;;15.48;100.00
64675;BME280;51090;51.512;11.332;2023-05-12T05:34:01;99430.84;;;15.61;100.00
64675;BME280;51090;51.512;11.332;2023-05-12T05:36:28;99433.84;;;15.78;100.00
64675;BME280;51090;51.512;11.332;2023-05-12T05:38:54;99436.53;;;15.96;100.00
64675;BME280;51090;51.512;11.332;2023-05-12T05:41:20;99442.56;;;16.10;100.00
64675;BME280;51090;51.512;11.332;2023-05-12T05:43:47;99431.38;;;16.20;100.00
64675;BME280;51090;51.512;11.332;2023-05-12T05:46:13;99428.66;;;16.26;100.00
64675;BME280;51090;51.512;11.332;2023-05-12T05:48:38;99446.41;;;16.39;100.00
64675;BME280;51090;51.512;11.332;2023-05-12T05:51:04;99445.50;;;16.45;100.00
64675;BME280;51090;51.512;11.332;2023-05-12T05:53:30;99444.25;;;16.48;100.00
64675;BME280;51090;51.512;11.332;2023-05-12T05:55:56;99447.06;;;16.53;100.00
64675;BME280;51090;51.512;11.332;2023-05-12T05:58:22;99460.25;;;16.54;100.00
64675;BME280;51090;51.512;11.332;2023-05-12T06:00:48;99460.09;;;16.49;100.00
64675;BME280;51090;51.512;11.332;2023-05-12T06:03:14;99453.09;;;16.48;100.00
64675;BME280;51090;51.512;11.332;2023-05-12T06:05:40;99461.88;;;16.55;100.00
64675;BME280;51090;51.512;11.332;2023-05-12T06:08:07;99459.72;;;16.64;100.00
64675;BME280;51090;51.512;11.332;2023-05-12T06:10:35;99456.75;;;16.72;100.00
64675;BME280;51090;51.512;11.332;2023-05-12T06:13:01;99460.56;;;16.83;100.00
64675;BME280;51090;51.512;11.332;2023-05-12T06:15:27;99462.72;;;16.93;100.00
64675;BME280;51090;51.512;11.332;2023-05-12T06:17:53;99469.88;;;17.11;100.00
64675;BME280;51090;51.512;11.332;2023-05-12T06:20:18;99466.06;;;17.18;100.00
64675;BME280;51090;51.512;11.332;2023-05-12T06:22:44;99469.38;;;17.32;100.00
64675;BME280;51090;51.512;11.332;2023-05-12T06:25:10;99472.78;;;17.39;100.00
64675;BME280;51090;51.512;11.332;2023-05-12T06:27:36;99477.38;;;17.51;100.00
64675;BME280;51090;51.512;11.332;2023-05-12T06:30:02;99471.19;;;17.62;100.00
64675;BME280;51090;51.512;11.332;2023-05-12T06:32:28;99480.69;;;17.76;100.00
64675;BME280;51090;51.512;11.332;2023-05-12T06:34:54;99475.72;;;17.92;100.00
64675;BME280;51090;51.512;11.332;2023-05-12T06:37:20;99475.97;;;18.02;100.00
64675;BME280;51090;51.512;11.332;2023-05-12T06:39:45;99474.34;;;18.24;100.00
64675;BME280;51090;51.512;11.332;2023-05-12T06:42:11;99473.28;;;18.37;97.07
64675;BME280;51090;51.512;11.332;2023-05-12T06:44:37;99475.59;;;18.45;95.56
64675;BME280;51090;51.512;11.332;2023-05-12T06:47:03;99472.31;;;18.55;95.13
64675;BME280;51090;51.512;11.332;2023-05-12T06:49:29;99463.66;;;18.65;95.52
64675;BME280;51090;51.512;11.332;2023-05-12T06:51:55;99456.28;;;18.84;93.29
64675;BME280;51090;51.512;11.332;2023-05-12T06:54:21;99457.00;;;19.08;92.46
64675;BME280;51090;51.512;11.332;2023-05-12T06:56:47;99464.56;;;19.23;89.78
64675;BME280;51090;51.512;11.332;2023-05-12T06:59:13;99456.25;;;19.24;88.00
64675;BME280;51090;51.512;11.332;2023-05-12T07:01:38;99462.13;;;19.38;88.33
64675;BME280;51090;51.512;11.332;2023-05-12T07:04:05;99456.91;;;19.31;84.23
64675;BME280;51090;51.512;11.332;2023-05-12T07:06:32;99465.91;;;19.37;84.02
64675;BME280;51090;51.512;11.332;2023-05-12T07:08:59;99466.72;;;19.54;85.24
64675;BME280;51090;51.512;11.332;2023-05-12T07:11:24;99463.06;;;19.61;81.63
64675;BME280;51090;51.512;11.332;2023-05-12T07:13:51;99462.50;;;19.58;81.20
64675;BME280;51090;51.512;11.332;2023-05-12T07:16:17;99467.72;;;19.65;81.74
64675;BME280;51090;51.512;11.332;2023-05-12T07:18:44;99471.09;;;19.89;80.23
64675;BME280;51090;51.512;11.332;2023-05-12T07:21:10;99465.00;;;19.94;77.69
64675;BME280;51090;51.512;11.332;2023-05-12T07:23:37;99478.75;;;20.14;79.53
64675;BME280;51090;51.512;11.332;2023-05-12T07:26:04;99466.47;;;20.40;78.80
64675;BME280;51090;51.512;11.332;2023-05-12T07:28:31;99476.47;;;20.62;76.00
64675;BME280;51090;51.512;11.332;2023-05-12T07:31:00;99486.69;;;20.82;73.73
64675;BME280;51090;51.512;11.332;2023-05-12T07:33:26;99486.13;;;21.02;74.05
64675;BME280;51090;51.512;11.332;2023-05-12T07:35:51;99491.75;;;21.22;71.26
64675;BME280;51090;51.512;11.332;2023-05-12T07:38:17;99492.16;;;21.36;71.66
64675;BME280;51090;51.512;11.332;2023-05-12T07:40:43;99501.81;;;21.54;70.43
64675;BME280;51090;51.512;11.332;2023-05-12T07:43:09;99501.94;;;21.69;69.39
64675;BME280;51090;51.512;11.332;2023-05-12T07:45:35;99496.13;;;21.83;66.00
64675;BME280;51090;51.512;11.332;2023-05-12T07:48:01;99495.09;;;21.89;66.07
64675;BME280;51090;51.512;11.332;2023-05-12T07:50:27;99493.03;;;22.01;66.55
64675;BME280;51090;51.512;11.332;2023-05-12T07:52:53;99505.03;;;22.15;65.72
64675;BME280;51090;51.512;11.332;2023-05-12T07:55:20;99498.22;;;22.08;62.56
64675;BME280;51090;51.512;11.332;2023-05-12T07:57:48;99504.06;;;21.94;64.71
64675;BME280;51090;51.512;11.332;2023-05-12T08:00:14;99490.53;;;21.89;65.81
64675;BME280;51090;51.512;11.332;2023-05-12T08:02:41;99505.44;;;21.97;65.18
64675;BME280;51090;51.512;11.332;2023-05-12T08:05:08;99508.75;;;22.09;66.58
64675;BME280;51090;51.512;11.332;2023-05-12T08:07:36;99503.91;;;22.11;64.53
64675;BME280;51090;51.512;11.332;2023-05-12T08:10:03;99503.81;;;22.01;66.27
64675;BME280;51090;51.512;11.332;2023-05-12T08:12:29;99501.31;;;21.89;64.16
64675;BME280;51090;51.512;11.332;2023-05-12T08:14:55;99501.34;;;21.62;66.82
64675;BME280;51090;51.512;11.332;2023-05-12T08:17:21;99516.53;;;21.41;67.35
64675;BME280;51090;51.512;11.332;2023-05-12T08:19:47;99503.13;;;21.29;69.13
64675;BME280;51090;51.512;11.332;2023-05-12T08:22:12;99497.03;;;21.12;68.42
64675;BME280;51090;51.512;11.332;2023-05-12T08:24:38;99502.03;;;21.03;69.68
64675;BME280;51090;51.512;11.332;2023-05-12T08:27:04;99510.28;;;20.92;70.22
64675;BME280;51090;51.512;11.332;2023-05-12T08:29:30;99505.19;;;20.73;67.11
64675;BME280;51090;51.512;11.332;2023-05-12T08:31:57;99505.22;;;20.56;67.97
64675;BME280;51090;51.512;11.332;2023-05-12T08:34:24;99499.91;;;20.44;69.41
64675;BME280;51090;51.512;11.332;2023-05-12T08:36:53;99495.44;;;20.33;68.77
64675;BME280;51090;51.512;11.332;2023-05-12T08:39:20;99511.59;;;20.33;68.58
64675;BME280;51090;51.512;11.332;2023-05-12T08:42:33;99504.44;;;20.22;66.65
64675;BME280;51090;51.512;11.332;2023-05-12T08:45:02;99506.72;;;20.13;69.86
64675;BME280;51090;51.512;11.332;2023-05-12T08:47:31;99503.81;;;20.15;69.72
64675;BME280;51090;51.512;11.332;2023-05-12T08:50:00;99484.88;;;20.10;71.77
64675;BME280;51090;51.512;11.332;2023-05-12T08:52:29;99502.22;;;20.19;69.92
64675;BME280;51090;51.512;11.332;2023-05-12T08:54:56;99504.09;;;20.18;70.45
64675;BME280;51090;51.512;11.332;2023-05-12T08:57:22;99504.38;;;20.17;69.66
64675;BME280;51090;51.512;11.332;2023-05-12T08:59:50;99500.59;;;20.18;71.43
64675;BME280;51090;51.512;11.332;2023-05-12T09:02:17;99489.69;;;20.25;70.68
64675;BME280;51090;51.512;11.332;2023-05-12T09:04:45;99468.81;;;20.15;70.09
64675;BME280;51090;51.512;11.332;2023-05-12T09:07:11;99507.84;;;20.34;67.49
64675;BME280;51090;51.512;11.332;2023-05-12T09:09:37;99501.41;;;20.35;67.58
64675;BME280;51090;51.512;11.332;2023-05-12T09:12:11;99504.09;;;20.35;66.98
64675;BME280;51090;51.512;11.332;2023-05-12T09:14:37;99497.66;;;20.36;66.90
64675;BME280;51090;51.512;11.332;2023-05-12T09:17:06;99477.69;;;20.32;65.98
64675;BME280;51090;51.512;11.332;2023-05-12T09:19:31;99499.16;;;20.49;66.51
64675;BME280;51090;51.512;11.332;2023-05-12T09:21:59;99505.06;;;20.46;63.34
64675;BME280;51090;51.512;11.332;2023-05-12T09:24:37;99496.91;;;20.41;57.82
64675;BME280;51090;51.512;11.332;2023-05-12T09:27:03;99498.06;;;20.45;62.77
64675;BME280;51090;51.512;11.332;2023-05-12T09:29:30;99496.81;;;20.53;64.38
64675;BME280;51090;51.512;11.332;2023-05-12T09:32:02;99510.38;;;20.58;63.16
64675;BME280;51090;51.512;11.332;2023-05-12T09:34:35;99496.34;;;20.56;58.51
64675;BME280;51090;51.512;11.332;2023-05-12T09:37:04;99494.28;;;20.63;62.83
64675;BME280;51090;51.512;11.332;2023-05-12T09:39:31;99495.22;;;20.74;60.84
64675;BME280;51090;51.512;11.332;2023-05-12T09:41:57;99494.84;;;20.87;63.75
64675;BME280;51090;51.512;11.332;2023-05-12T09:44:24;99495.47;;;20.94;63.87
64675;BME280;51090;51.512;11.332;2023-05-12T09:46:51;99509.88;;;21.05;62.46
64675;BME280;51090;51.512;11.332;2023-05-12T09:49:24;99500.47;;;21.07;57.23
64675;BME280;51090;51.512;11.332;2023-05-12T09:51:58;99499.69;;;21.07;58.28
64675;BME280;51090;51.512;11.332;2023-05-12T09:56:52;99496.13;;;21.06;60.98
64675;BME280;51090;51.512;11.332;2023-05-12T09:59:20;99485.88;;;21.03;59.85
64675;BME280;51090;51.512;11.332;2023-05-12T10:01:52;99480.84;;;21.12;59.66
64675;BME280;51090;51.512;11.332;2023-05-12T10:04:20;99484.41;;;21.18;57.78
64675;BME280;51090;51.512;11.332;2023-05-12T10:06:46;99485.03;;;21.25;58.97
64675;BME280;51090;51.512;11.332;2023-05-12T10:09:30;99492.75;;;21.38;58.79
64675;BME280;51090;51.512;11.332;2023-05-12T10:11:58;99485.63;;;21.54;58.15
64675;BME280;51090;51.512;11.332;2023-05-12T10:14:25;99495.41;;;21.65;56.69
64675;BME280;51090;51.512;11.332;2023-05-12T10:16:51;99493.84;;;21.69;57.00
64675;BME280;51090;51.512;11.332;2023-05-12T10:19:19;99494.28;;;21.56;54.35
64675;BME280;51090;51.512;11.332;2023-05-12T10:21:46;99483.94;;;21.48;52.41
64675;BME280;51090;51.512;11.332;2023-05-12T10:24:15;99484.66;;;21.38;51.15
64675;BME280;51090;51.512;11.332;2023-05-12T10:26:44;99482.72;;;21.61;52.95
64675;BME280;51090;51.512;11.332;2023-05-12T10:29:10;99492.56;;;21.77;52.24
64675;BME280;51090;51.512;11.332;2023-05-12T10:31:37;99484.72;;;21.75;50.50
64675;BME280;51090;51.512;11.332;2023-05-12T10:34:03;99488.75;;;22.05;52.18
64675;BME280;51090;51.512;11.332;2023-05-12T10:36:29;99489.50;;;22.33;50.96
64675;BME280;51090;51.512;11.332;2023-05-12T10:39:04;99492.59;;;22.57;50.70
64675;BME280;51090;51.512;11.332;2023-05-12T10:41:34;99479.16;;;22.72;49.52
64675;BME280;51090;51.512;11.332;2023-05-12T10:44:00;99480.75;;;22.68;48.80
64675;BME280;51090;51.512;11.332;2023-05-12T10:46:26;99486.53;;;22.92;48.34
64675;BME280;51090;51.512;11.332;2023-05-12T10:49:01;99480.16;;;23.14;47.23
64675;BME280;51090;51.512;11.332;2023-05-12T10:51:46;99481.00;;;23.35;41.45
64675;BME280;51090;51.512;11.332;2023-05-12T10:54:20;99478.66;;;23.74;43.45
64675;BME280;51090;51.512;11.332;2023-05-12T10:56:47;99470.53;;;24.00;45.60
64675;BME280;51090;51.512;11.332;2023-05-12T10:59:20;99463.47;;;24.04;44.59
64675;BME280;51090;51.512;11.332;2023-05-12T11:02:14;99482.94;;;24.21;43.15
64675;BME280;51090;51.512;11.332;2023-05-12T11:04:57;99480.75;;;24.28;45.62
64675;BME280;51090;51.512;11.332;2023-05-12T11:07:28;99477.78;;;24.20;41.90
64675;BME280;51090;51.512;11.332;2023-05-12T11:09:56;99476.94;;;24.45;44.74
64675;BME280;51090;51.512;11.332;2023-05-12T11:12:23;99469.47;;;24.86;43.03
64675;BME280;51090;51.512;11.332;2023-05-12T11:14:51;99465.66;;;25.42;42.78
64675;BME280;51090;51.512;11.332;2023-05-12T11:17:16;99472.16;;;25.80;40.99
64675;BME280;51090;51.512;11.332;2023-05-12T11:19:48;99476.06;;;26.03;36.33
64675;BME280;51090;51.512;11.332;2023-05-12T11:22:16;99477.25;;;26.21;38.68
64675;BME280;51090;51.512;11.332;2023-05-12T11:24:43;99464.94;;;26.29;40.36
64675;BME280;51090;51.512;11.332;2023-05-12T11:27:14;99476.47;;;26.45;38.13
64675;BME280;51090;51.512;11.332;2023-05-12T11:29:41;99467.75;;;26.72;37.91
64675;BME280;51090;51.512;11.332;2023-05-12T11:32:09;99470.28;;;26.87;36.60
64675;BME280;51090;51.512;11.332;2023-05-12T11:34:35;99475.53;;;26.79;36.45
64675;BME280;51090;51.512;11.332;2023-05-12T11:37:03;99487.19;;;26.60;36.40
64675;BME280;51090;51.512;11.332;2023-05-12T11:39:29;99482.63;;;26.26;35.59
64675;BME280;51090;51.512;11.332;2023-05-12T11:42:05;99486.00;;;25.79;33.95
64675;BME280;51090;51.512;11.332;2023-05-12T11:44:33;99478.59;;;25.16;35.67
64675;BME280;51090;51.512;11.332;2023-05-12T11:49:30;99472.22;;;24.76;38.54
64675;BME280;51090;51.512;11.332;2023-05-12T11:52:00;99478.19;;;24.78;39.31
64675;BME280;51090;51.512;11.332;2023-05-12T11:54:30;99482.22;;;24.86;38.33
64675;BME280;51090;51.512;11.332;2023-05-12T11:56:56;99484.59;;;25.08;38.57
64675;BME280;51090;51.512;11.332;2023-05-12T11:59:34;99485.22;;;25.44;36.89
64675;BME280;51090;51.512;11.332;2023-05-12T12:02:02;99469.31;;;25.67;36.45
64675;BME280;51090;51.512;11.332;2023-05-12T12:04:38;99481.28;;;26.00;35.24
64675;BME280;51090;51.512;11.332;2023-05-12T12:07:08;99485.19;;;26.18;35.66
64675;BME280;51090;51.512;11.332;2023-05-12T12:09:36;99489.16;;;26.25;35.52
64675;BME280;51090;51.512;11.332;2023-05-12T12:12:04;99476.72;;;25.90;33.47
64675;BME280;51090;51.512;11.332;2023-05-12T12:14:31;99493.63;;;25.82;34.37
64675;BME280;51090;51.512;11.332;2023-05-12T12:16:58;99487.16;;;25.73;32.54
64675;BME280;51090;51.512;11.332;2023-05-12T12:19:24;99487.97;;;25.73;33.77
64675;BME280;51090;51.512;11.332;2023-05-12T12:21:53;99485.44;;;25.48;33.19
64675;BME280;51090;51.512;11.332;2023-05-12T12:24:18;99497.28;;;25.12;34.69
64675;BME280;51090;51.512;11.332;2023-05-12T12:26:44;99500.16;;;24.82;35.46
64675;BME280;51090;51.512;11.332;2023-05-12T12:29:10;99500.16;;;24.87;36.00
64675;BME280;51090;51.512;11.332;2023-05-12T12:31:36;99503.88;;;25.01;37.04
64675;BME280;51090;51.512;11.332;2023-05-12T12:34:02;99490.78;;;25.18;36.68
64675;BME280;51090;51.512;11.332;2023-05-12T12:36:29;99489.69;;;25.19;36.34
64675;BME280;51090;51.512;11.332;2023-05-12T12:38:55;99498.31;;;25.32;37.19
64675;BME280;51090;51.512;11.332;2023-05-12T12:41:21;99500.94;;;25.47;36.38
64675;BME280;51090;51.512;11.332;2023-05-12T12:43:47;99496.66;;;25.75;36.05
64675;BME280;51090;51.512;11.332;2023-05-12T12:46:12;99482.16;;;25.90;35.43
64675;BME280;51090;51.512;11.332;2023-05-12T12:48:38;99498.38;;;26.00;32.91